Time;durP1;ratioP1;P1;durP2;ratioP2;P2;SDS_P1;SDS_P2;PMS_P1;PMS_P2;Temp;Humidity;BMP_temperature;BMP_pressure;BME280_temperature;BME280_humidity;BME280_pressure;Samples;Min_cycle;Max_cycle;Signal;HPM_P1;HPM_P2
2022/05/31 00:01:47;;;;;;;4.00;1.90;;;;;;;23.25;64.58;98816.00;5072658;28;20184;-84
2022/05/31 00:04:12;;;;;;;9.20;2.87;;;;;;;23.20;64.05;98808.50;5073347;28;20188;-84
2022/05/31 00:06:39;;;;;;;4.47;2.63;;;;;;;23.13;65.13;98814.69;5073479;28;20189;-84
2022/05/31 00:09:04;;;;;;;6.60;2.53;;;;;;;23.05;65.03;98817.34;5072022;28;20555;-84
2022/05/31 00:11:30;;;;;;;4.93;2.37;;;;;;;23.03;65.11;98824.72;5072959;28;20176;-84
2022/05/31 00:13:55;;;;;;;3.70;2.03;;;;;;;23.06;65.12;98824.38;5072915;28;20630;-84
2022/05/31 00:16:21;;;;;;;7.53;2.77;;;;;;;23.09;64.56;98826.72;5073198;28;20181;-84
2022/05/31 00:18:46;;;;;;;3.27;2.03;;;;;;;23.10;65.22;98825.72;5073173;28;20264;-84
2022/05/31 00:21:12;;;;;;;5.30;2.70;;;;;;;23.09;64.97;98829.38;5071925;28;20592;-84
2022/05/31 00:23:40;;;;;;;5.27;2.40;;;;;;;23.13;65.18;98830.72;5071899;28;20207;-84
2022/05/31 00:26:05;;;;;;;3.97;2.50;;;;;;;23.08;65.38;98833.06;5072183;28;20180;-84
2022/05/31 00:28:31;;;;;;;6.10;3.07;;;;;;;22.97;65.42;98825.38;5073079;28;20224;-84
2022/05/31 00:30:57;;;;;;;4.33;1.93;;;;;;;22.95;65.44;98824.72;5071882;28;20185;-84
2022/05/31 00:33:24;;;;;;;6.33;2.57;;;;;;;22.93;65.55;98837.41;5071804;28;20181;-84
2022/05/31 00:35:51;;;;;;;4.10;2.20;;;;;;;22.97;65.36;98830.72;5071797;28;20185;-84
2022/05/31 00:38:17;;;;;;;6.33;2.30;;;;;;;22.97;66.00;98831.56;5073052;28;20214;-84
2022/05/31 00:40:43;;;;;;;7.10;2.57;;;;;;;23.02;65.80;98836.41;5071786;28;20177;-84
2022/05/31 00:43:11;;;;;;;11.47;2.87;;;;;;;23.03;65.46;98844.28;5071762;28;20658;-84
2022/05/31 00:45:56;;;;;;;8.43;3.77;;;;;;;22.91;66.03;98842.06;5073282;28;20180;-84
2022/05/31 00:48:30;;;;;;;12.73;2.73;;;;;;;22.83;66.04;98839.38;5072886;28;20196;-84
2022/05/31 00:51:02;;;;;;;3.77;2.40;;;;;;;22.68;67.39;98849.06;5073016;28;20230;-84
2022/05/31 00:53:37;;;;;;;5.07;2.40;;;;;;;22.60;67.51;98850.69;5072687;28;20161;-84
2022/05/31 00:56:06;;;;;;;4.00;2.10;;;;;;;22.59;67.49;98849.00;5071642;28;20268;-84
2022/05/31 00:58:41;;;;;;;5.40;2.43;;;;;;;22.62;67.51;98851.38;5071634;28;20188;-84
2022/05/31 01:01:10;;;;;;;8.43;2.90;;;;;;;22.61;67.77;98857.69;5071645;28;20557;-84
2022/05/31 01:03:39;;;;;;;9.60;2.80;;;;;;;22.60;67.74;98857.84;5071894;28;20204;-84
2022/05/31 01:06:06;;;;;;;8.47;2.67;;;;;;;22.48;67.71;98864.50;5075430;28;20526;-84
2022/05/31 01:08:34;;;;;;;3.90;2.53;;;;;;;22.47;67.69;98863.66;5076024;28;20747;-84
2022/05/31 01:11:01;;;;;;;5.60;2.70;;;;;;;22.48;67.02;98864.50;5076341;28;20597;-84
2022/05/31 01:13:28;;;;;;;7.40;2.70;;;;;;;22.48;66.64;98862.66;5076281;28;20177;-84
2022/05/31 01:16:05;;;;;;;8.67;2.60;;;;;;;22.44;66.17;98873.81;5075008;28;20180;-84
2022/05/31 01:18:31;;;;;;;6.87;2.70;;;;;;;22.38;66.47;98869.97;5076253;28;20161;-84
2022/05/31 01:20:56;;;;;;;3.73;1.97;;;;;;;22.28;66.91;98882.63;5074881;28;20630;-84
2022/05/31 01:23:23;;;;;;;4.10;2.30;;;;;;;22.20;67.48;98884.41;5075833;28;20250;-84
2022/05/31 01:26:11;;;;;;;7.63;3.03;;;;;;;22.17;67.80;98885.56;5074836;28;20181;-84
2022/05/31 01:28:39;;;;;;;5.63;2.47;;;;;;;22.14;67.87;98885.91;5076021;28;20181;-84
2022/05/31 01:31:11;;;;;;;7.40;2.90;;;;;;;22.17;67.49;98884.75;5075680;28;20177;-84
2022/05/31 01:33:44;;;;;;;6.27;2.93;;;;;;;22.16;67.24;98880.41;5075926;28;20169;-84
2022/05/31 01:36:14;;;;;;;5.17;2.33;;;;;;;22.05;68.01;98881.50;5075939;28;20253;-84
2022/05/31 01:38:51;;;;;;;7.27;2.67;;;;;;;22.08;67.28;98875.84;5075863;28;20161;-84
2022/05/31 01:41:32;;;;;;;6.57;2.23;;;;;;;22.09;67.87;98888.19;5074598;28;20161;-84
2022/05/31 01:44:01;;;;;;;3.83;2.37;;;;;;;22.06;68.88;98883.19;5075783;28;20167;-84
2022/05/31 01:46:33;;;;;;;7.20;2.63;;;;;;;21.99;68.86;98882.13;5074390;28;20645;-84
2022/05/31 01:49:02;;;;;;;9.87;3.17;;;;;;;21.97;68.76;98884.97;5074398;28;20193;-84
2022/05/31 01:51:28;;;;;;;4.93;2.57;;;;;;;22.00;69.06;98882.00;5074316;28;20173;-84
2022/05/31 01:53:55;;;;;;;5.60;2.17;;;;;;;22.04;68.96;98885.16;5075309;28;20234;-84
2022/05/31 01:56:22;;;;;;;8.67;3.20;;;;;;;22.07;69.24;98892.84;5075278;28;20227;-84
2022/05/31 01:58:50;;;;;;;6.53;2.50;;;;;;;22.03;68.77;98895.03;5075406;28;20192;-84
2022/05/31 02:01:17;;;;;;;6.80;2.50;;;;;;;21.93;69.91;98898.81;5075069;28;20180;-85
2022/05/31 02:03:44;;;;;;;4.70;2.57;;;;;;;21.91;70.56;98901.59;5074056;28;20180;-85
2022/05/31 02:06:32;;;;;;;9.70;2.80;;;;;;;21.96;70.53;98909.97;5075241;28;20203;-84
2022/05/31 02:08:58;;;;;;;5.03;2.80;;;;;;;21.92;70.71;98919.31;5074034;28;20623;-84
2022/05/31 02:11:24;;;;;;;5.73;2.83;;;;;;;21.93;70.18;98922.81;5074911;28;20259;-84
2022/05/31 02:13:50;;;;;;;11.17;3.03;;;;;;;21.90;69.65;98928.47;5073864;28;20177;-84
2022/05/31 02:16:17;;;;;;;6.47;2.37;;;;;;;21.91;69.09;98922.97;5075097;28;20169;-84
2022/05/31 02:21:35;;;;;;;5.10;2.50;;;;;;;21.87;68.86;98923.44;5075327;28;20168;-84
2022/05/31 02:24:05;;;;;;;4.80;2.97;;;;;;;21.89;68.96;98918.78;5073715;28;20614;-84
2022/05/31 02:26:31;;;;;;;13.00;2.83;;;;;;;21.88;68.38;98925.94;5073553;28;20169;-84
2022/05/31 02:28:56;;;;;;;3.30;2.23;;;;;;;21.90;68.48;98915.13;5073593;28;20218;-85
2022/05/31 02:31:23;;;;;;;3.60;2.33;;;;;;;21.96;68.61;98909.97;5073491;28;20224;-85
2022/05/31 02:33:49;;;;;;;5.50;3.00;;;;;;;21.98;68.33;98909.84;5074326;28;20177;-85
2022/05/31 02:36:14;;;;;;;6.83;3.13;;;;;;;22.01;68.79;98918.34;5073420;28;20173;-85
2022/05/31 02:38:40;;;;;;;4.73;2.73;;;;;;;21.99;68.79;98927.50;5074339;28;20188;-84
2022/05/31 02:41:06;;;;;;;6.87;2.33;;;;;;;21.91;68.72;98927.44;5073341;28;20177;-84
2022/05/31 02:43:32;;;;;;;5.43;2.53;;;;;;;21.82;68.24;98939.06;5073264;28;20611;-85
2022/05/31 02:46:01;;;;;;;4.17;2.30;;;;;;;21.66;68.29;98928.25;5073246;28;20268;-85
2022/05/31 02:48:26;;;;;;;4.90;2.60;;;;;;;21.71;68.45;98926.81;5074691;28;20185;-85
2022/05/31 02:50:51;;;;;;;5.73;2.73;;;;;;;21.69;68.83;98928.78;5074388;28;20173;-84
2022/05/31 02:53:17;;;;;;;5.37;2.60;;;;;;;21.71;68.76;98931.28;5074074;28;20180;-84
2022/05/31 02:55:43;;;;;;;4.10;2.37;;;;;;;21.67;69.18;98929.94;5074227;28;20230;-85
2022/05/31 02:58:08;;;;;;;6.83;2.83;;;;;;;21.66;68.89;98928.25;5073037;28;20537;-84
2022/05/31 03:00:34;;;;;;;11.60;3.40;;;;;;;21.74;68.60;98939.84;5073876;28;20168;-85
2022/05/31 03:02:59;;;;;;;6.63;3.03;;;;;;;21.74;68.82;98941.66;5072931;28;20184;-84
2022/05/31 03:05:25;;;;;;;6.10;2.80;;;;;;;21.69;69.16;98939.47;5073137;28;20176;-85
2022/05/31 03:07:50;;;;;;;5.37;2.50;;;;;;;21.74;68.80;98945.16;5073774;28;20180;-84
2022/05/31 03:10:16;;;;;;;7.90;2.33;;;;;;;21.76;68.83;98942.34;5074040;28;20570;-85
2022/05/31 03:12:42;;;;;;;4.80;2.40;;;;;;;21.79;68.99;98953.53;5072767;28;20597;-85
2022/05/31 03:15:13;;;;;;;5.53;2.77;;;;;;;21.77;69.14;98950.19;5072744;28;20208;-85
2022/05/31 03:17:44;;;;;;;6.50;2.43;;;;;;;21.69;69.66;98951.97;5073522;28;20165;-85
2022/05/31 03:20:33;;;;;;;6.70;3.03;;;;;;;21.71;69.51;98947.31;5073871;28;20172;-85
2022/05/31 03:23:04;;;;;;;7.53;2.77;;;;;;;21.75;69.42;98959.34;5072677;28;20165;-84
2022/05/31 03:25:31;;;;;;;5.07;2.87;;;;;;;21.71;69.43;98964.16;5073210;28;20184;-84
2022/05/31 03:28:02;;;;;;;4.60;2.47;;;;;;;21.80;69.14;98957.06;5073312;28;20268;-85
2022/05/31 03:30:29;;;;;;;4.80;2.70;;;;;;;21.86;68.86;98964.44;5073941;28;20211;-85
2022/05/31 03:32:56;;;;;;;5.97;2.30;;;;;;;21.88;68.51;98965.16;5073643;28;20200;-85
2022/05/31 03:35:22;;;;;;;4.30;2.20;;;;;;;21.87;68.45;98968.81;5073363;28;20180;-85
2022/05/31 03:37:48;;;;;;;5.13;2.73;;;;;;;21.90;68.24;98968.50;5072289;28;20179;-85
2022/05/31 03:40:56;;;;;;;6.30;3.13;;;;;;;21.81;68.99;98969.38;5073874;28;20172;-85
2022/05/31 03:43:01;;;;;;;8.77;3.13;;;;;;;21.84;68.85;98966.41;5073132;28;20669;-85
2022/05/31 03:45:38;;;;;;;6.30;2.97;;;;;;;21.78;69.40;98962.53;5072280;28;20246;-85
2022/05/31 03:48:08;;;;;;;4.93;2.50;;;;;;;21.71;70.12;98968.66;5073401;28;20254;-85
2022/05/31 03:50:34;;;;;;;5.87;3.07;;;;;;;21.73;70.47;98961.31;5072484;28;20666;-85
2022/05/31 03:53:00;;;;;;;3.83;2.40;;;;;;;21.85;69.90;98965.44;5072203;28;20196;-85
2022/05/31 03:55:25;;;;;;;5.23;2.73;;;;;;;21.89;69.81;98964.16;5073113;28;20621;-85
2022/05/31 03:57:53;;;;;;;6.27;3.20;;;;;;;21.89;70.27;98977.50;5072023;28;20269;-84
2022/05/31 04:00:20;;;;;;;5.93;3.47;;;;;;;21.91;70.56;98978.16;5072374;28;20551;-85
2022/05/31 04:02:46;;;;;;;4.37;2.43;;;;;;;21.98;70.30;98985.41;5072182;28;20185;-85
2022/05/31 04:05:12;;;;;;;6.00;3.40;;;;;;;22.02;70.08;98993.94;5073040;28;20165;-84
2022/05/31 04:07:38;;;;;;;14.10;2.93;;;;;;;22.04;70.04;98997.28;5073226;28;20188;-85
2022/05/31 04:10:06;;;;;;;5.50;2.90;;;;;;;21.98;69.76;99003.25;5073015;28;20180;-84
2022/05/31 04:12:37;;;;;;;5.50;3.23;;;;;;;21.95;70.55;98995.56;5072884;28;20180;-84
2022/05/31 04:15:02;;;;;;;6.83;3.23;;;;;;;22.00;71.13;98994.09;5073248;28;20173;-85
2022/05/31 04:17:28;;;;;;;4.50;2.60;;;;;;;22.02;71.25;98994.78;5071999;28;20173;-84
2022/05/31 04:19:53;;;;;;;5.80;2.47;;;;;;;22.15;71.60;98991.69;5072947;28;20180;-84
2022/05/31 04:22:19;;;;;;;5.20;2.40;;;;;;;22.23;71.17;98993.56;5071983;28;20237;-85
2022/05/31 04:24:44;;;;;;;4.50;2.30;;;;;;;22.31;71.67;98986.44;5072865;28;20536;-85
2022/05/31 04:27:17;;;;;;;7.67;2.40;;;;;;;22.44;71.71;98978.84;5071847;28;20250;-85
2022/05/31 04:29:42;;;;;;;3.47;2.13;;;;;;;22.48;71.27;98985.53;5073081;28;20194;-85
2022/05/31 04:32:08;;;;;;;4.93;2.87;;;;;;;22.52;71.21;98984.22;5071855;28;20181;-85
2022/05/31 04:34:34;;;;;;;5.90;2.40;;;;;;;22.66;70.93;98976.63;5071805;28;20234;-85
2022/05/31 04:37:00;;;;;;;4.07;2.23;;;;;;;22.78;70.54;98986.03;5071770;28;20242;-84
2022/05/31 04:39:27;;;;;;;10.50;2.70;;;;;;;22.86;69.64;98994.91;5074626;28;20598;-85
2022/05/31 04:41:52;;;;;;;5.13;2.40;;;;;;;22.94;69.55;99002.13;5076559;28;20193;-85
2022/05/31 04:44:18;;;;;;;3.57;2.00;;;;;;;22.99;69.16;98997.97;5076491;28;20188;-85
2022/05/31 04:46:44;;;;;;;3.23;1.80;;;;;;;23.05;68.22;99015.22;5076643;28;20193;-85
2022/05/31 04:49:11;;;;;;;7.60;2.50;;;;;;;23.07;67.45;99003.34;5076716;28;20658;-84
2022/05/31 04:51:37;;;;;;;3.83;2.17;;;;;;;23.16;67.83;98998.88;5075382;28;20169;-84
2022/05/31 04:54:04;;;;;;;5.37;2.40;;;;;;;23.30;67.12;99006.22;5075386;28;20173;-85
2022/05/31 04:56:29;;;;;;;6.77;2.67;;;;;;;23.42;65.71;99004.97;5076552;28;20225;-85
2022/05/31 04:58:55;;;;;;;6.57;2.23;;;;;;;23.54;65.51;99011.66;5075907;28;20573;-85
2022/05/31 05:01:22;;;;;;;4.73;2.20;;;;;;;23.65;65.57;99016.69;5076194;28;20259;-85
2022/05/31 05:03:48;;;;;;;4.13;1.80;;;;;;;23.72;64.68;99009.66;5075191;28;20271;-85
2022/05/31 05:06:16;;;;;;;3.77;1.87;;;;;;;23.68;64.84;99013.69;5075986;28;20212;-85
2022/05/31 05:08:42;;;;;;;4.60;2.40;;;;;;;23.64;63.98;99004.31;5075320;28;20193;-85
2022/05/31 05:11:12;;;;;;;9.20;3.37;;;;;;;23.71;64.06;99005.34;5075087;28;20266;-85
2022/05/31 05:13:37;;;;;;;6.70;2.60;;;;;;;23.78;64.63;99014.38;5075881;28;20165;-84
2022/05/31 05:16:04;;;;;;;6.57;2.57;;;;;;;23.92;64.34;99014.69;5075972;28;20686;-85
2022/05/31 05:18:30;;;;;;;5.47;2.97;;;;;;;24.11;63.15;99014.41;5074973;28;20176;-85
2022/05/31 05:20:56;;;;;;;5.23;2.63;;;;;;;24.24;63.10;99012.03;5076116;28;20169;-85
2022/05/31 05:23:21;;;;;;;5.27;2.03;;;;;;;24.60;62.09;99004.41;5076120;28;20180;-85
2022/05/31 05:25:52;;;;;;;5.53;2.93;;;;;;;24.70;61.06;99003.19;5075689;28;20173;-85
2022/05/31 05:31:02;;;;;;;6.57;2.50;;;;;;;24.75;61.41;99016.91;5076266;28;20180;-85
2022/05/31 05:33:29;;;;;;;5.00;2.27;;;;;;;24.82;61.83;99006.34;5074675;28;20181;-85
2022/05/31 05:35:54;;;;;;;4.07;2.67;;;;;;;24.74;61.17;99011.69;5075871;28;20180;-85
2022/05/31 05:38:20;;;;;;;5.77;2.77;;;;;;;24.79;61.96;99012.09;5074637;28;20177;-85
2022/05/31 05:40:45;;;;;;;5.23;2.43;;;;;;;24.80;62.48;99011.06;5075558;28;20700;-84
2022/05/31 05:43:11;;;;;;;4.03;2.23;;;;;;;24.68;61.86;99021.31;5075484;28;20535;-85
2022/05/31 05:45:37;;;;;;;4.20;2.57;;;;;;;24.75;63.02;99026.78;5075407;28;20622;-85
2022/05/31 05:48:05;;;;;;;5.17;3.17;;;;;;;24.83;63.38;99021.44;5075531;28;20185;-85
2022/05/31 05:50:30;;;;;;;5.07;2.73;;;;;;;24.88;62.87;99014.53;5075792;28;20177;-86
2022/05/31 05:53:00;;;;;;;6.57;3.40;;;;;;;25.07;63.54;99010.59;5074633;28;20540;-85
2022/05/31 05:55:25;;;;;;;6.97;2.70;;;;;;;25.21;61.79;99009.03;5075102;28;20177;-86
2022/05/31 05:57:51;;;;;;;6.83;3.50;;;;;;;25.32;60.55;99013.97;5075836;28;20242;-85
2022/05/31 06:00:16;;;;;;;4.97;2.47;;;;;;;25.35;61.18;99006.41;5074459;28;20542;-85
2022/05/31 06:02:47;;;;;;;4.30;2.60;;;;;;;25.48;62.13;99011.22;5075363;28;20235;-85
2022/05/31 06:05:19;;;;;;;9.93;2.50;;;;;;;25.71;60.30;99016.63;5075376;28;20234;-86
2022/05/31 06:07:50;;;;;;;7.33;3.23;;;;;;;25.75;60.26;99021.44;5075529;28;20185;-85
2022/05/31 06:10:23;;;;;;;6.50;2.93;;;;;;;25.86;59.15;99023.72;5075254;28;20174;-86
2022/05/31 06:12:56;;;;;;;4.40;2.10;;;;;;;25.94;58.68;99026.28;5075526;28;20210;-86
2022/05/31 06:15:25;;;;;;;6.07;2.50;;;;;;;26.08;57.86;99030.03;5075195;28;20213;-86
2022/05/31 06:17:55;;;;;;;9.77;3.30;;;;;;;26.31;58.70;99030.06;5075054;28;20181;-86
2022/05/31 06:20:22;;;;;;;6.40;3.47;;;;;;;26.53;56.40;99026.44;5075015;28;20173;-86
2022/05/31 06:22:48;;;;;;;4.23;2.10;;;;;;;26.45;55.32;99026.53;5074967;28;20232;-84
2022/05/31 06:25:17;;;;;;;5.90;2.80;;;;;;;26.62;55.31;99025.34;5074593;28;20173;-86
2022/05/31 06:27:43;;;;;;;4.63;2.23;;;;;;;26.63;54.84;99021.63;5074486;28;20216;-85
2022/05/31 06:30:09;;;;;;;5.57;2.60;;;;;;;26.96;55.31;99024.81;5074522;28;20188;-86
2022/05/31 06:32:34;;;;;;;6.63;2.47;;;;;;;27.25;54.06;99022.06;5074444;28;20203;-86
2022/05/31 06:34:59;;;;;;;4.67;2.27;;;;;;;27.29;52.29;99029.56;5074453;28;20172;-85
2022/05/31 06:37:28;;;;;;;6.97;3.23;;;;;;;27.43;52.95;99014.44;5073393;28;20173;-86
2022/05/31 06:39:54;;;;;;;4.50;1.90;;;;;;;27.63;51.52;99014.63;5074879;28;20173;-86
2022/05/31 06:42:20;;;;;;;4.43;2.50;;;;;;;27.74;50.72;99016.81;5073687;28;20260;-86
2022/05/31 06:44:45;;;;;;;5.47;3.50;;;;;;;27.91;50.60;99016.34;5073279;28;20169;-85
2022/05/31 06:47:11;;;;;;;5.20;2.70;;;;;;;28.05;49.25;99022.72;5074412;28;20200;-85
2022/05/31 06:49:37;;;;;;;4.40;2.65;;;;;;;28.08;50.43;99018.81;5074161;28;20568;-86
2022/05/31 06:57:37;;;;;;;8.73;2.28;;;;;;;28.64;50.00;99023.22;5073898;28;20638;-86
2022/05/31 07:00:06;;;;;;;4.20;1.83;;;;;;;28.91;49.35;99019.59;5073935;28;20180;-86
2022/05/31 07:02:32;;;;;;;4.70;2.50;;;;;;;29.17;48.11;99008.09;5073444;28;20613;-86
2022/05/31 07:04:57;;;;;;;3.92;2.30;;;;;;;29.32;47.52;99016.91;5073917;28;20268;-86
2022/05/31 07:07:23;;;;;;;6.97;2.22;;;;;;;29.25;46.29;99016.03;5074362;28;20546;-86
2022/05/31 07:09:49;;;;;;;5.35;2.15;;;;;;;29.40;47.46;99016.72;5074006;28;20666;-86
2022/05/31 07:12:14;;;;;;;6.10;2.15;;;;;;;29.42;47.73;99006.56;5073733;28;20251;-87
2022/05/31 07:14:39;;;;;;;3.63;2.17;;;;;;;29.45;47.66;99003.44;5073924;28;20177;-87
2022/05/31 07:17:05;;;;;;;4.45;2.33;;;;;;;29.73;47.10;99009.53;5073654;28;20173;-87
2022/05/31 07:19:31;;;;;;;5.93;2.75;;;;;;;29.94;46.84;99018.50;5073636;28;20633;-87
2022/05/31 07:21:58;;;;;;;4.60;2.25;;;;;;;30.22;45.68;99009.16;5073588;28;20646;-87
2022/05/31 07:24:24;;;;;;;3.63;2.38;;;;;;;30.47;45.22;99009.38;5073549;28;20181;-87
2022/05/31 07:26:50;;;;;;;10.32;2.78;;;;;;;30.50;44.38;99014.38;5072470;28;20276;-87
2022/05/31 07:29:16;;;;;;;6.50;2.72;;;;;;;30.54;45.13;99015.59;5072470;28;20670;-86
2022/05/31 07:31:44;;;;;;;4.05;2.25;;;;;;;30.72;44.22;99018.47;5073444;28;20225;-87
2022/05/31 07:34:14;;;;;;;4.53;2.55;;;;;;;30.99;44.82;99016.53;5073426;28;20177;-88
2022/05/31 07:36:39;;;;;;;7.05;2.03;;;;;;;31.08;43.03;99022.56;5073437;28;20173;-86
2022/05/31 07:39:08;;;;;;;9.38;2.38;;;;;;;31.27;43.50;99010.78;5073335;28;20180;-88
2022/05/31 07:41:34;;;;;;;5.97;2.35;;;;;;;31.40;43.45;99008.84;5073266;28;20175;-87
2022/05/31 07:44:00;;;;;;;5.50;2.17;;;;;;;31.55;44.02;99011.31;5073564;28;20165;-86
2022/05/31 07:46:27;;;;;;;4.45;1.90;;;;;;;31.78;43.39;99019.69;5073187;28;20568;-86
2022/05/31 07:48:53;;;;;;;5.75;2.47;;;;;;;31.87;42.36;99015.66;5072291;28;20181;-87
2022/05/31 07:51:18;;;;;;;5.78;2.30;;;;;;;32.11;42.82;99017.59;5073217;28;20184;-87
2022/05/31 07:53:44;;;;;;;5.38;2.10;;;;;;;32.18;42.11;99022.97;5073174;28;20177;-87
2022/05/31 07:56:10;;;;;;;3.35;2.10;;;;;;;32.29;41.39;99013.25;5073360;28;20699;-87
2022/05/31 07:58:42;;;;;;;4.30;1.98;;;;;;;32.54;40.01;99016.81;5072208;28;20188;-87
2022/05/31 08:01:10;;;;;;;4.50;2.38;;;;;;;32.52;40.78;99006.16;5073361;28;20560;-87
2022/05/31 08:03:40;;;;;;;8.05;2.40;;;;;;;32.66;41.35;98996.00;5073102;28;20177;-87
2022/05/31 08:06:11;;;;;;;3.13;2.08;;;;;;;32.90;40.49;98997.00;5073032;28;20181;-87
2022/05/31 08:08:37;;;;;;;4.30;2.33;;;;;;;33.14;41.09;98993.38;5073295;28;20184;-87
2022/05/31 08:11:08;;;;;;;4.95;2.30;;;;;;;33.13;41.50;98989.84;5073005;28;20189;-87
2022/05/31 08:13:34;;;;;;;4.63;2.47;;;;;;;33.42;42.18;98994.47;5074659;28;20591;-87
2022/05/31 08:16:00;;;;;;;9.73;2.38;;;;;;;33.64;40.60;98983.09;5077355;28;20256;-87
2022/05/31 08:18:27;;;;;;;6.20;2.30;;;;;;;33.69;39.82;98985.94;5077051;28;20169;-88
2022/05/31 08:21:00;;;;;;;7.45;2.35;;;;;;;33.78;39.34;98990.00;5076987;28;20622;-87
2022/05/31 08:23:26;;;;;;;4.28;2.20;;;;;;;33.95;39.39;98990.97;5077541;28;20185;-87
2022/05/31 08:25:54;;;;;;;6.68;2.55;;;;;;;33.95;38.83;98980.09;5075984;28;20234;-87
2022/05/31 08:28:20;;;;;;;6.18;2.72;;;;;;;33.86;40.18;98984.19;5075823;28;20191;-88
2022/05/31 08:30:46;;;;;;;4.68;2.40;;;;;;;33.87;40.83;98978.53;5076836;28;20180;-87
2022/05/31 08:33:12;;;;;;;9.57;2.40;;;;;;;34.04;39.87;98975.97;5076723;28;20192;-88
2022/05/31 08:35:37;;;;;;;5.10;2.30;;;;;;;34.06;40.70;98976.59;5076655;28;20623;-87
2022/05/31 08:38:03;;;;;;;9.00;3.33;;;;;;;34.12;38.61;98975.63;5076927;28;20165;-87
2022/05/31 08:40:28;;;;;;;5.75;2.30;;;;;;;34.03;40.18;98968.03;5076852;28;20256;-88
2022/05/31 08:43:02;;;;;;;4.85;2.22;;;;;;;33.96;38.36;98970.88;5076567;28;20603;-87
2022/05/31 08:45:47;;;;;;;4.43;2.35;;;;;;;33.88;39.03;98971.22;5076805;28;20625;-87
2022/05/31 08:48:32;;;;;;;7.57;2.28;;;;;;;33.99;40.10;98973.09;5076623;28;20181;-87
2022/05/31 08:56:59;;;;;;;4.90;3.10;;;;;;;34.08;37.29;98979.91;5076803;28;20280;-88
2022/05/31 08:59:53;;;;;;;6.65;2.38;;;;;;;34.28;37.83;98993.97;5076825;28;20157;-87
2022/05/31 09:02:29;;;;;;;4.68;2.85;;;;;;;34.22;36.88;98989.50;5075331;28;20200;-87
2022/05/31 09:05:25;;;;;;;6.47;3.10;;;;;;;34.40;39.34;98981.22;5076708;28;20160;-87
2022/05/31 09:07:57;;;;;;;5.18;2.92;;;;;;;34.67;38.33;98992.44;5073930;28;20216;-88
2022/05/31 09:10:23;;;;;;;5.45;2.85;;;;;;;34.80;37.44;98986.72;5076056;28;20571;-87
2022/05/31 09:12:54;;;;;;;5.55;2.60;;;;;;;34.84;38.26;98987.09;5075993;28;20211;-88
2022/05/31 09:15:42;;;;;;;5.97;2.80;;;;;;;34.86;38.33;98990.41;5076235;28;20240;-87
2022/05/31 09:18:26;;;;;;;5.72;2.72;;;;;;;34.89;36.70;98979.03;5075927;28;20169;-88
2022/05/31 09:20:57;;;;;;;4.95;2.90;;;;;;;34.91;37.33;98976.88;5075842;28;20172;-87
2022/05/31 09:23:30;;;;;;;10.60;3.28;;;;;;;35.03;36.47;98981.25;5075793;28;20177;-87
2022/05/31 09:26:20;;;;;;;5.35;2.40;;;;;;;35.09;35.31;98979.50;5075032;28;20169;-88
2022/05/31 09:28:52;;;;;;;6.75;2.50;;;;;;;35.09;35.63;98974.03;5074680;28;20181;-88
2022/05/31 09:31:33;;;;;;;3.78;1.83;;;;;;;35.02;34.52;98970.59;5075975;28;20161;-87
2022/05/31 09:34:17;;;;;;;5.10;2.05;;;;;;;34.97;35.79;98962.31;5075965;28;20234;-88
2022/05/31 09:36:59;;;;;;;8.85;2.17;;;;;;;35.00;35.34;98964.56;5075583;28;20626;-88
2022/05/31 09:39:36;;;;;;;5.95;1.80;;;;;;;35.03;34.96;98958.63;5076092;28;20157;-88
2022/05/31 09:42:15;;;;;;;2.90;1.80;;;;;;;35.00;35.28;98956.38;5075803;28;20187;-89
2022/05/31 09:44:44;;;;;;;4.78;1.90;;;;;;;34.88;34.57;98955.59;5076015;28;20165;-89
2022/05/31 09:47:12;;;;;;;3.20;1.75;;;;;;;34.87;31.24;98953.94;5075328;28;20394;-89
2022/05/31 09:49:44;;;;;;;5.15;1.90;;;;;;;34.91;31.59;98946.91;5074346;28;20197;-88
2022/05/31 09:52:15;;;;;;;4.30;1.70;;;;;;;35.12;32.55;98949.00;5074281;28;20545;-89
2022/05/31 09:57:59;;;;;;;5.20;1.50;;;;;;;35.06;30.83;98952.72;5075379;28;20208;-88
2022/05/31 10:00:25;;;;;;;3.45;1.83;;;;;;;35.14;29.65;98950.41;5074140;28;20179;-88
2022/05/31 10:03:01;;;;;;;3.55;1.35;;;;;;;35.03;29.48;98939.56;5074088;28;20193;-88
2022/05/31 10:05:27;;;;;;;3.60;1.30;;;;;;;35.08;30.77;98948.69;5074988;28;20181;-88
2022/05/31 10:07:53;;;;;;;5.43;1.55;;;;;;;35.00;31.76;98940.03;5074882;28;20208;-88
2022/05/31 10:10:35;;;;;;;3.25;1.27;;;;;;;34.81;30.18;98946.72;5074888;28;20314;-88
2022/05/31 10:13:04;;;;;;;3.17;1.33;;;;;;;34.86;30.53;98946.81;5075234;28;20297;-88
2022/05/31 10:15:34;;;;;;;6.75;1.40;;;;;;;34.85;31.80;98939.72;5075091;28;20180;-88
2022/05/31 10:18:09;;;;;;;3.75;2.00;;;;;;;34.79;31.43;98946.13;5074039;28;20183;-88
2022/05/31 10:20:35;;;;;;;11.07;1.40;;;;;;;34.82;31.56;98946.50;5073750;28;20165;-88
2022/05/31 10:23:03;;;;;;;4.22;1.40;;;;;;;35.11;31.66;98952.81;5074562;28;20192;-88
2022/05/31 10:25:38;;;;;;;8.48;1.83;;;;;;;35.07;32.77;98946.19;5074798;28;20183;-88
2022/05/31 10:28:12;;;;;;;3.72;1.83;;;;;;;35.07;32.77;98952.47;5073488;28;20287;-88
2022/05/31 10:30:39;;;;;;;7.43;2.15;;;;;;;35.15;32.70;98949.38;5073491;28;20646;-89
2022/05/31 10:33:09;;;;;;;4.82;1.95;;;;;;;35.28;32.72;98945.50;5073385;28;20177;-88
2022/05/31 10:35:43;;;;;;;6.63;1.92;;;;;;;35.51;31.78;98945.38;5074574;28;20204;-88
2022/05/31 10:38:17;;;;;;;11.07;2.38;;;;;;;35.89;32.75;98946.59;5072375;28;20185;-88
2022/05/31 10:40:55;;;;;;;4.05;2.00;;;;;;;35.98;32.13;98951.41;5073251;28;20194;-88
2022/05/31 10:43:43;;;;;;;3.83;1.92;;;;;;;36.05;32.89;98945.81;5074491;28;20165;-88
2022/05/31 10:46:28;;;;;;;5.28;2.03;;;;;;;36.06;31.70;98942.81;5073214;28;20169;-89
2022/05/31 10:48:57;;;;;;;5.95;2.38;;;;;;;35.85;31.91;98946.28;5073045;28;20197;-89
2022/05/31 10:51:41;;;;;;;5.28;2.30;;;;;;;35.92;33.02;98935.22;5074013;28;20177;-88
2022/05/31 10:54:07;;;;;;;7.72;2.60;;;;;;;35.87;32.70;98932.41;5074270;28;20587;-88
2022/05/31 10:56:45;;;;;;;7.78;2.38;;;;;;;35.69;31.97;98928.81;5073807;28;20199;-90
2022/05/31 10:59:35;;;;;;;3.47;1.88;;;;;;;35.71;31.86;98925.88;5074196;28;20161;-88
2022/05/31 11:02:06;;;;;;;9.50;2.35;;;;;;;35.64;31.23;98926.00;5074421;28;20638;-88
2022/05/31 11:04:54;;;;;;;5.10;2.10;;;;;;;35.52;30.82;98924.41;5073804;28;20575;-88
2022/05/31 11:11:28;;;;;;;4.07;2.03;;;;;;;35.52;30.27;98921.69;5074206;28;20517;-88
2022/05/31 11:14:15;;;;;;;4.07;1.85;;;;;;;35.37;31.52;98915.97;5052272;28;20199;-88
2022/05/31 11:17:11;;;;;;;6.22;1.85;;;;;;;35.38;31.50;98918.44;5072623;28;20616;-88
2022/05/31 11:19:42;;;;;;;3.55;1.35;;;;;;;35.45;30.68;98910.94;5073728;28;20172;-88
2022/05/31 11:22:22;;;;;;;2.63;1.52;;;;;;;35.61;31.36;98904.72;5073790;28;20599;-88
2022/05/31 11:25:10;;;;;;;4.63;2.15;;;;;;;35.66;32.05;98902.06;5073693;28;20207;-88
2022/05/31 11:27:50;;;;;;;8.98;2.60;;;;;;;35.75;32.45;98895.13;5058099;28;20227;-87
2022/05/31 11:30:19;;;;;;;5.32;2.00;;;;;;;35.64;32.27;98896.00;5053982;28;20180;-87
2022/05/31 11:32:59;;;;;;;5.13;1.90;;;;;;;35.64;31.36;98879.66;5053335;28;20327;-87
2022/05/31 11:35:35;;;;;;;3.67;1.92;;;;;;;35.90;32.15;98883.63;5053626;28;20162;-88
2022/05/31 11:38:09;;;;;;;4.57;1.85;;;;;;;35.68;33.20;98875.38;5052605;28;20177;-88
2022/05/31 11:40:57;;;;;;;3.88;1.83;;;;;;;35.54;33.36;98868.59;5053534;28;20511;-88
2022/05/31 11:44:08;;;;;;;3.95;1.77;;;;;;;35.45;33.68;98859.16;5053467;28;20166;-88
2022/05/31 11:46:38;;;;;;;9.45;2.67;;;;;;;35.43;34.09;98861.28;5049969;28;20243;-88
2022/05/31 11:49:15;;;;;;;11.77;2.40;;;;;;;35.44;34.25;98860.22;5051829;28;20524;-87
2022/05/31 11:51:46;;;;;;;3.95;2.03;;;;;;;35.48;33.76;98853.19;5053128;28;20162;-88
2022/05/31 11:54:14;;;;;;;6.88;2.40;;;;;;;35.41;34.46;98857.97;5053086;28;20169;-87
2022/05/31 11:56:52;;;;;;;4.75;2.10;;;;;;;35.32;34.85;98859.47;5053101;28;20189;-87
2022/05/31 11:59:21;;;;;;;5.70;2.78;;;;;;;35.11;35.68;98865.63;5052055;28;20549;-87
2022/05/31 12:01:52;;;;;;;7.10;2.53;;;;;;;35.18;35.50;98863.56;5052889;28;20237;-89
2022/05/31 12:04:45;;;;;;;4.45;2.10;;;;;;;35.18;34.68;98869.84;5052825;28;20166;-86
2022/05/31 12:07:24;;;;;;;5.18;2.88;;;;;;;35.07;34.86;98865.28;5051917;28;20328;-87
2022/05/31 12:10:01;;;;;;;4.68;2.20;;;;;;;35.08;35.46;98879.72;5053486;28;20162;-87
2022/05/31 12:12:30;;;;;;;7.47;2.75;;;;;;;35.03;34.97;98879.59;5053153;28;20579;-88